21  °C
Temperature
15  °C
  Dewpoint
   Humidity
Temp | Dewpoint | Humidity
5  km/h
Wind Speed
3  mph
Wind Speed
3  kts
Wind Speed
50°
North East

Wind Speed
Clear
Conditions
Pressure 1022.92 (hPa) - 30.21 (in)
Visibility 6.2 (mi) - 10.0 (km)

Current Conditions
LKLN
Location 6km (3.2mi)
Metar :LKLN 250600Z AUTO 05003KT 010V100 CAVOK 21/15 Q1023
Tue 25th June 08:00 am

Airport
  Metar Aviation API Data Provided by https://www.checkwx.com/ CSS/SVG/PHP scripts by weather34.com © 2015-2019